Time;durP1;ratioP1;P1;durP2;ratioP2;P2;SDS_P1;SDS_P2;PMS_P1;PMS_P2;Temp;Humidity;BMP_temperature;BMP_pressure;BME280_temperature;BME280_humidity;BME280_pressure;Samples;Min_cycle;Max_cycle;Signal;HPM_P1;HPM_P2
2023/05/08 00:01:58;;;;;;;5.73;5.23;;;;;;;14.65;100.00;98397.59;5071989;28;20214;-78
2023/05/08 00:04:24;;;;;;;6.20;5.07;;;;;;;14.59;100.00;98400.75;5072265;28;20211;-78
2023/05/08 00:06:52;;;;;;;6.23;5.47;;;;;;;14.55;100.00;98394.00;5071797;28;20207;-78
2023/05/08 00:09:19;;;;;;;5.63;5.13;;;;;;;14.50;100.00;98393.53;5071361;28;20283;-78
2023/05/08 00:11:46;;;;;;;6.40;5.73;;;;;;;14.49;100.00;98394.50;5071717;28;20221;-78
2023/05/08 00:14:12;;;;;;;5.80;5.23;;;;;;;14.47;100.00;98393.75;5071786;28;20246;-78
2023/05/08 00:16:39;;;;;;;6.50;5.27;;;;;;;14.45;100.00;98395.69;5071653;28;20210;-78
2023/05/08 00:19:05;;;;;;;6.30;5.70;;;;;;;14.40;100.00;98397.88;5071336;28;20238;-78
2023/05/08 00:21:32;;;;;;;6.03;5.43;;;;;;;14.38;100.00;98389.19;5071344;28;20230;-79
2023/05/08 00:24:00;;;;;;;5.63;5.13;;;;;;;14.37;100.00;98392.81;5071254;28;20214;-79
2023/05/08 00:26:26;;;;;;;5.50;4.97;;;;;;;14.35;100.00;98397.44;5071737;28;20210;-78
2023/05/08 00:28:53;;;;;;;5.47;4.93;;;;;;;14.34;100.00;98399.22;5071169;28;20229;-78
2023/05/08 00:31:19;;;;;;;6.37;5.40;;;;;;;14.34;100.00;98398.38;5071327;28;20215;-78
2023/05/08 00:33:46;;;;;;;5.67;4.90;;;;;;;14.34;100.00;98401.03;5071403;28;20218;-78
2023/05/08 00:36:14;;;;;;;5.27;4.77;;;;;;;14.35;100.00;98400.09;5071165;28;20205;-78
2023/05/08 00:38:41;;;;;;;5.87;5.30;;;;;;;14.35;100.00;98397.44;5071440;28;20668;-77
2023/05/08 00:41:09;;;;;;;5.77;5.27;;;;;;;14.36;100.00;98399.13;5070966;28;20606;-77
2023/05/08 00:43:36;;;;;;;6.33;5.57;;;;;;;14.34;100.00;98399.22;5071546;28;20211;-77
2023/05/08 00:46:04;;;;;;;6.77;6.07;;;;;;;14.38;100.00;98398.03;5071367;28;20661;-76
2023/05/08 00:48:33;;;;;;;6.00;5.40;;;;;;;14.40;100.00;98405.84;5071361;28;20227;-78
2023/05/08 00:51:02;;;;;;;5.73;5.23;;;;;;;14.40;100.00;98404.06;5070796;28;20207;-77
2023/05/08 00:53:31;;;;;;;7.53;5.67;;;;;;;14.41;100.00;98399.56;5070896;28;20207;-88
2023/05/08 00:55:58;;;;;;;5.93;5.40;;;;;;;14.38;100.00;98403.34;5071371;28;20219;-87
2023/05/08 00:58:28;;;;;;;7.00;5.43;;;;;;;14.40;100.00;98413.84;5070988;28;20229;-89
2023/05/08 01:00:56;;;;;;;7.23;6.53;;;;;;;14.43;100.00;98409.13;5070588;28;20229;-89
2023/05/08 01:03:23;;;;;;;6.33;5.60;;;;;;;14.47;100.00;98413.22;5071021;28;20206;-90
2023/05/08 01:05:49;;;;;;;6.90;6.07;;;;;;;14.47;100.00;98415.03;5071378;28;20213;-78
2023/05/08 01:08:16;;;;;;;7.10;6.40;;;;;;;14.51;100.00;98419.16;5070698;28;20235;-78
2023/05/08 01:10:53;;;;;;;6.50;5.90;;;;;;;14.51;100.00;98416.50;5070879;28;20199;-79
2023/05/08 01:13:30;;;;;;;6.47;5.87;;;;;;;14.51;100.00;98412.03;5071305;28;20210;-78
2023/05/08 01:16:06;;;;;;;6.73;6.03;;;;;;;14.50;100.00;98410.34;5070919;28;20213;-79
2023/05/08 01:18:37;;;;;;;8.13;7.10;;;;;;;14.51;100.00;98425.31;5071078;28;20231;-79
2023/05/08 01:21:13;;;;;;;7.13;6.27;;;;;;;14.48;100.00;98414.09;5070845;28;20239;-78
2023/05/08 01:24:25;;;;;;;6.37;5.77;;;;;;;14.48;100.00;98419.41;5070760;28;20236;-79
2023/05/08 01:27:16;;;;;;;7.20;6.50;;;;;;;14.51;100.00;98416.50;5028418;28;20314;-79
2023/05/08 01:30:16;;;;;;;7.43;6.47;;;;;;;14.47;100.00;98415.03;5025104;28;20236;-78
2023/05/08 01:32:50;;;;;;;6.33;5.73;;;;;;;14.41;100.00;98421.69;5066962;28;20402;-79
2023/05/08 01:35:23;;;;;;;6.40;5.70;;;;;;;14.37;100.00;98414.09;5070707;28;20232;-79
2023/05/08 01:37:57;;;;;;;6.03;5.43;;;;;;;14.39;100.00;98418.34;5070636;28;20229;-79
2023/05/08 01:40:33;;;;;;;6.43;5.70;;;;;;;14.40;100.00;98425.34;5070250;28;20235;-79
2023/05/08 01:43:12;;;;;;;7.90;6.00;;;;;;;14.39;100.00;98418.34;5070573;28;20235;-79
2023/05/08 01:45:41;;;;;;;7.10;6.07;;;;;;;14.40;100.00;98429.78;5070725;28;20205;-79
2023/05/08 01:48:12;;;;;;;7.43;6.60;;;;;;;14.41;100.00;98427.03;5070502;28;20725;-79
2023/05/08 01:50:42;;;;;;;9.40;8.07;;;;;;;14.41;100.00;98431.47;5070490;28;20223;-78
2023/05/08 01:53:13;;;;;;;8.13;7.33;;;;;;;14.43;100.00;98432.22;5070766;28;20213;-79
2023/05/08 01:55:42;;;;;;;8.80;7.90;;;;;;;14.41;100.00;98428.81;5070987;28;20229;-77
2023/05/08 01:58:11;;;;;;;8.87;7.80;;;;;;;14.46;100.00;98430.16;5070483;28;20607;-79
2023/05/08 02:00:40;;;;;;;8.50;7.60;;;;;;;14.55;100.00;98436.56;5070296;28;20227;-79
2023/05/08 02:03:10;;;;;;;8.17;7.23;;;;;;;14.48;100.00;98430.06;5070452;28;20222;-78
2023/05/08 02:05:38;;;;;;;9.23;8.13;;;;;;;14.43;100.00;98429.56;5072793;28;20209;-78
2023/05/08 02:08:05;;;;;;;8.77;7.87;;;;;;;14.40;100.00;98424.47;5073767;28;20232;-78
2023/05/08 02:10:32;;;;;;;9.63;8.10;;;;;;;14.38;100.00;98429.06;5073857;28;20205;-79
2023/05/08 02:13:01;;;;;;;9.73;8.73;;;;;;;14.39;100.00;98434.28;5074154;28;20210;-78
2023/05/08 02:15:34;;;;;;;9.93;8.73;;;;;;;14.43;100.00;98440.19;5074122;28;20562;-78
2023/05/08 02:18:03;;;;;;;9.33;8.33;;;;;;;14.46;100.00;98438.13;5073835;28;20265;-78
2023/05/08 02:20:32;;;;;;;10.80;9.30;;;;;;;14.33;100.00;98434.78;5073334;28;20233;-79
2023/05/08 02:22:59;;;;;;;10.03;9.03;;;;;;;14.32;100.00;98432.22;5074030;28;20213;-79
2023/05/08 02:25:28;;;;;;;10.30;9.20;;;;;;;14.27;100.00;98434.41;5073682;28;20218;-77
2023/05/08 02:27:56;;;;;;;10.53;9.43;;;;;;;14.21;100.00;98430.44;5073801;28;20230;-79
2023/05/08 02:30:25;;;;;;;10.60;9.50;;;;;;;14.21;100.00;98430.44;5073374;28;20206;-79
2023/05/08 02:32:54;;;;;;;12.00;9.30;;;;;;;14.21;100.00;98430.44;5073547;28;20205;-79
2023/05/08 02:35:21;;;;;;;11.63;9.30;;;;;;;14.18;100.00;98435.09;5073813;28;20209;-79
2023/05/08 02:37:52;;;;;;;10.63;8.97;;;;;;;14.15;100.00;98432.69;5073747;28;20232;-79
2023/05/08 02:40:22;;;;;;;11.07;8.60;;;;;;;14.14;100.00;98438.97;5073153;28;20214;-79
2023/05/08 02:42:49;;;;;;;9.43;8.03;;;;;;;14.16;100.00;98437.00;5073273;28;20222;-79
2023/05/08 02:45:16;;;;;;;10.13;8.90;;;;;;;14.17;100.00;98436.06;5073414;28;20208;-79
2023/05/08 02:47:51;;;;;;;10.13;9.13;;;;;;;14.18;100.00;98440.41;5073157;28;20216;-79
2023/05/08 02:50:23;;;;;;;10.73;9.63;;;;;;;14.21;100.00;98441.06;5073169;28;20213;-79
2023/05/08 02:52:54;;;;;;;9.37;8.43;;;;;;;14.20;100.00;98438.50;5073305;28;20208;-79
2023/05/08 02:55:32;;;;;;;12.03;10.40;;;;;;;14.23;100.00;98433.78;5073075;28;20216;-79
2023/05/08 02:58:11;;;;;;;11.37;10.27;;;;;;;14.25;100.00;98441.66;5072782;28;20259;-78
2023/05/08 03:00:45;;;;;;;11.37;9.50;;;;;;;14.21;100.00;98434.88;5072862;28;20242;-79
2023/05/08 03:03:17;;;;;;;10.93;8.87;;;;;;;14.19;100.00;98436.81;5073124;28;20300;-79
2023/05/08 03:05:49;;;;;;;11.87;10.07;;;;;;;14.19;100.00;98432.34;5072974;28;20216;-78
2023/05/08 03:08:21;;;;;;;11.83;9.97;;;;;;;14.28;100.00;98430.78;5072626;28;20597;-78
2023/05/08 03:10:51;;;;;;;11.27;9.83;;;;;;;14.30;100.00;98435.00;5072519;28;20206;-79
2023/05/08 03:13:20;;;;;;;10.80;9.30;;;;;;;14.27;100.00;98429.94;5072877;28;20213;-78
2023/05/08 03:15:52;;;;;;;11.50;9.67;;;;;;;14.26;100.00;98432.72;5072710;28;20222;-78
2023/05/08 03:18:21;;;;;;;12.30;10.50;;;;;;;14.27;100.00;98429.09;5072705;28;20229;-78
2023/05/08 03:20:52;;;;;;;11.17;9.87;;;;;;;14.19;100.00;98432.34;5072378;28;20229;-78
2023/05/08 03:23:23;;;;;;;11.17;10.00;;;;;;;14.24;100.00;98429.34;5072849;28;20213;-78
2023/05/08 03:25:51;;;;;;;10.97;9.83;;;;;;;14.30;100.00;98434.16;5072891;28;20213;-78
2023/05/08 03:28:20;;;;;;;13.50;10.13;;;;;;;14.22;100.00;98431.25;5072922;28;20238;-78
2023/05/08 03:30:48;;;;;;;11.37;9.43;;;;;;;14.21;100.00;98429.56;5072315;28;20200;-78
2023/05/08 03:33:16;;;;;;;12.50;10.37;;;;;;;14.21;100.00;98429.56;5072556;28;20213;-78
2023/05/08 03:35:44;;;;;;;11.90;10.27;;;;;;;14.19;100.00;98427.03;5072231;28;20205;-78
2023/05/08 03:38:12;;;;;;;11.10;9.90;;;;;;;14.15;100.00;98432.69;5072428;28;20230;-78
2023/05/08 03:40:41;;;;;;;11.07;9.10;;;;;;;14.12;100.00;98435.59;5072028;28;20216;-78
2023/05/08 03:43:09;;;;;;;9.73;8.60;;;;;;;14.13;100.00;98431.97;5072320;28;20207;-78
2023/05/08 03:45:36;;;;;;;14.10;11.97;;;;;;;14.15;100.00;98428.22;5072400;28;20281;-78
2023/05/08 03:48:05;;;;;;;12.97;11.43;;;;;;;14.14;100.00;98425.66;5072064;28;20315;-78
2023/05/08 03:50:31;;;;;;;15.07;12.23;;;;;;;14.20;100.00;98433.19;5071707;28;20209;-78
2023/05/08 03:52:58;;;;;;;12.63;11.23;;;;;;;14.17;100.00;98434.25;5072280;28;20209;-78
2023/05/08 03:55:25;;;;;;;13.50;12.00;;;;;;;14.16;100.00;98431.69;5072168;28;20212;-78
2023/05/08 03:57:57;;;;;;;12.87;11.20;;;;;;;14.10;100.00;98432.19;5071787;28;20240;-79
2023/05/08 04:00:31;;;;;;;12.70;11.30;;;;;;;14.11;100.00;98429.41;5071575;28;20682;-78
2023/05/08 04:03:13;;;;;;;14.23;12.23;;;;;;;14.11;100.00;98429.41;5071957;28;20216;-78
2023/05/08 04:05:46;;;;;;;14.50;12.33;;;;;;;14.15;100.00;98438.00;5071558;28;20589;-78
2023/05/08 04:08:19;;;;;;;13.47;11.87;;;;;;;14.13;100.00;98430.13;5071797;28;20227;-78
2023/05/08 04:10:50;;;;;;;13.93;11.67;;;;;;;14.15;100.00;98432.69;5071358;28;20204;-78
2023/05/08 04:13:25;;;;;;;15.57;12.67;;;;;;;14.17;100.00;98438.75;5071926;28;20549;-78
2023/05/08 04:15:54;;;;;;;16.17;14.07;;;;;;;14.22;100.00;98431.25;5071729;28;20211;-78
2023/05/08 04:18:28;;;;;;;14.83;13.23;;;;;;;14.22;100.00;98441.88;5071581;28;20240;-78
2023/05/08 04:20:56;;;;;;;16.50;13.20;;;;;;;14.23;100.00;98436.47;5071224;28;20209;-78
2023/05/08 04:23:23;;;;;;;16.23;13.73;;;;;;;14.22;100.00;98448.06;5071389;28;20212;-78
2023/05/08 04:25:52;;;;;;;17.10;13.33;;;;;;;14.18;100.00;98448.41;5071342;28;20218;-78
2023/05/08 04:28:21;;;;;;;15.83;14.13;;;;;;;14.21;100.00;98457.00;5070926;28;20236;-78
2023/05/08 04:30:48;;;;;;;15.63;12.77;;;;;;;14.19;100.00;98453.59;5071216;28;20208;-78
2023/05/08 04:33:17;;;;;;;14.07;12.03;;;;;;;14.19;100.00;98463.41;5071463;28;20209;-78
2023/05/08 04:35:44;;;;;;;13.70;11.53;;;;;;;14.21;100.00;98456.16;5071153;28;20213;-78
2023/05/08 04:38:11;;;;;;;14.97;11.93;;;;;;;14.23;100.00;98454.25;5070972;28;20299;-78
2023/05/08 04:40:38;;;;;;;12.80;11.07;;;;;;;14.25;100.00;98452.28;5071136;28;20208;-78
2023/05/08 04:43:04;;;;;;;13.93;12.00;;;;;;;14.27;100.00;98460.97;5071233;28;20228;-78
2023/05/08 04:45:32;;;;;;;11.30;10.03;;;;;;;14.28;100.00;98465.31;5071295;28;20216;-78
2023/05/08 04:47:59;;;;;;;12.40;11.03;;;;;;;14.28;100.00;98457.34;5071400;28;20225;-78
2023/05/08 04:50:25;;;;;;;12.47;10.90;;;;;;;14.27;100.00;98461.84;5070742;28;20231;-78
2023/05/08 04:52:52;;;;;;;12.47;11.00;;;;;;;14.29;100.00;98464.38;5071244;28;20214;-78
2023/05/08 04:55:18;;;;;;;11.57;10.37;;;;;;;14.31;100.00;98465.09;5071132;28;20220;-78
2023/05/08 04:57:45;;;;;;;12.57;10.70;;;;;;;14.32;100.00;98469.44;5070987;28;20233;-78
2023/05/08 05:00:12;;;;;;;11.63;10.43;;;;;;;14.33;100.00;98471.13;5071044;28;20219;-78
2023/05/08 05:02:40;;;;;;;12.57;10.73;;;;;;;14.34;100.00;98463.03;5071531;28;20233;-78
2023/05/08 05:05:07;;;;;;;11.87;10.67;;;;;;;14.34;100.00;98472.81;5070826;28;20220;-78
2023/05/08 05:07:34;;;;;;;11.73;10.13;;;;;;;14.33;100.00;98473.78;5070804;28;20208;-78
2023/05/08 05:10:00;;;;;;;12.70;10.93;;;;;;;14.34;100.00;98470.16;5070777;28;20212;-78
2023/05/08 05:12:27;;;;;;;11.93;10.20;;;;;;;14.35;100.00;98470.06;5071146;28;20228;-78
2023/05/08 05:14:53;;;;;;;13.43;10.77;;;;;;;14.37;100.00;98473.44;5070871;28;20216;-78
2023/05/08 05:17:20;;;;;;;14.10;11.53;;;;;;;14.41;100.00;98479.34;5070879;28;20205;-78
2023/05/08 05:19:48;;;;;;;12.23;10.93;;;;;;;14.42;100.00;98487.22;5070324;28;20278;-78
2023/05/08 05:22:15;;;;;;;12.00;10.73;;;;;;;14.38;100.00;98491.09;5070887;28;20232;-78
2023/05/08 05:24:41;;;;;;;14.77;11.33;;;;;;;14.37;100.00;98484.06;5071020;28;20276;-78
2023/05/08 05:27:08;;;;;;;13.17;11.33;;;;;;;14.38;100.00;98490.25;5070762;28;20204;-78
2023/05/08 05:29:34;;;;;;;12.97;11.13;;;;;;;14.38;100.00;98492.91;5070291;28;20236;-78
2023/05/08 05:32:02;;;;;;;13.83;12.33;;;;;;;14.40;100.00;98490.94;5070797;28;20204;-78
2023/05/08 05:34:28;;;;;;;14.33;12.23;;;;;;;14.43;100.00;98488.91;5070497;28;20218;-78
2023/05/08 05:36:56;;;;;;;15.67;13.27;;;;;;;14.43;100.00;98504.03;5070773;28;20296;-78
2023/05/08 05:39:22;;;;;;;14.97;13.20;;;;;;;14.46;100.00;98498.44;5070819;28;20237;-78
2023/05/08 05:41:49;;;;;;;14.53;12.27;;;;;;;14.46;100.00;98499.31;5074302;28;20236;-78
2023/05/08 05:44:15;;;;;;;12.63;11.33;;;;;;;14.44;100.00;98500.41;5074320;28;20698;-78
2023/05/08 05:46:42;;;;;;;12.13;10.67;;;;;;;14.43;100.00;98498.72;5074164;28;20591;-78
2023/05/08 05:49:08;;;;;;;13.90;11.97;;;;;;;14.41;100.00;98505.94;5074077;28;20232;-78
2023/05/08 05:51:35;;;;;;;14.30;11.40;;;;;;;14.41;100.00;98501.47;5074450;28;20208;-78
2023/05/08 05:54:03;;;;;;;14.47;11.27;;;;;;;14.44;100.00;98508.38;5074220;28;20663;-78
2023/05/08 05:56:29;;;;;;;13.63;12.20;;;;;;;14.47;100.00;98506.31;5074215;28;20209;-78
2023/05/08 05:58:56;;;;;;;13.13;11.80;;;;;;;14.41;100.00;98511.25;5073948;28;20241;-78
2023/05/08 06:01:23;;;;;;;12.87;11.37;;;;;;;14.43;100.00;98504.84;5073823;28;20231;-78
2023/05/08 06:03:50;;;;;;;12.13;10.93;;;;;;;14.43;100.00;98512.00;5074485;28;20267;-78
2023/05/08 06:06:16;;;;;;;13.43;11.80;;;;;;;14.43;100.00;98512.00;5074129;28;20216;-79
2023/05/08 06:08:43;;;;;;;13.10;11.70;;;;;;;14.40;100.00;98515.75;5074010;28;20229;-79
2023/05/08 06:11:11;;;;;;;13.47;12.07;;;;;;;14.45;100.00;98512.72;5073661;28;20296;-79
2023/05/08 06:13:39;;;;;;;11.93;10.70;;;;;;;14.43;100.00;98507.50;5073969;28;20200;-79
2023/05/08 06:16:06;;;;;;;12.97;11.53;;;;;;;14.45;100.00;98510.91;5073750;28;20217;-79
2023/05/08 06:18:33;;;;;;;13.90;11.50;;;;;;;14.47;100.00;98516.09;5073778;28;20675;-79
2023/05/08 06:21:00;;;;;;;12.23;10.93;;;;;;;14.46;100.00;98517.94;5073582;28;20676;-79
2023/05/08 06:23:26;;;;;;;12.33;10.90;;;;;;;14.44;100.00;98516.34;5073478;28;20226;-79
2023/05/08 06:25:53;;;;;;;13.63;11.40;;;;;;;14.46;100.00;98515.28;5073726;28;20212;-79
2023/05/08 06:28:24;;;;;;;14.43;11.90;;;;;;;14.51;100.00;98513.09;5073432;28;20235;-79
2023/05/08 06:30:51;;;;;;;13.23;11.77;;;;;;;14.54;100.00;98522.66;5073762;28;20237;-79
2023/05/08 06:33:17;;;;;;;14.63;11.73;;;;;;;14.60;100.00;98514.19;5073404;28;20636;-79
2023/05/08 06:35:46;;;;;;;13.57;12.17;;;;;;;14.61;100.00;98515.88;5073586;28;20210;-80
2023/05/08 06:38:12;;;;;;;12.63;11.33;;;;;;;14.65;100.00;98515.50;5073548;28;20230;-79
2023/05/08 06:40:42;;;;;;;13.57;12.17;;;;;;;14.70;100.00;98523.09;5073005;28;20219;-79
2023/05/08 06:43:08;;;;;;;13.87;12.07;;;;;;;14.69;100.00;98516.97;5073250;28;20227;-80
2023/05/08 06:45:36;;;;;;;14.00;12.07;;;;;;;14.66;100.00;98524.34;5073424;28;20212;-81
2023/05/08 06:48:03;;;;;;;14.10;12.50;;;;;;;14.66;100.00;98521.69;5073314;28;20225;-81
2023/05/08 06:50:30;;;;;;;14.43;12.47;;;;;;;14.72;100.00;98518.53;5072244;28;20214;-81
2023/05/08 06:52:56;;;;;;;15.43;12.63;;;;;;;14.69;100.00;98522.28;5073066;28;20299;-81
2023/05/08 06:55:23;;;;;;;14.00;11.70;;;;;;;14.75;100.00;98521.78;5073048;28;20209;-81
2023/05/08 06:57:50;;;;;;;14.50;12.13;;;;;;;14.80;100.00;98516.09;5073025;28;20225;-82
2023/05/08 07:00:16;;;;;;;13.97;12.10;;;;;;;14.81;100.00;98525.78;5073050;28;20236;-85
2023/05/08 07:02:44;;;;;;;12.87;11.57;;;;;;;14.83;100.00;98523.81;5072894;28;20319;-81
2023/05/08 07:05:11;;;;;;;13.27;11.87;;;;;;;14.90;100.00;98525.03;5073008;28;20213;-79
2023/05/08 07:07:37;;;;;;;14.10;12.65;;;;;;;14.94;100.00;98526.47;5071748;28;20438;-79
2023/05/08 07:10:04;;;;;;;12.80;11.40;;;;;;;14.92;100.00;98528.41;5070539;28;20209;-79
2023/05/08 07:12:31;;;;;;;12.67;11.37;;;;;;;14.93;100.00;98530.09;5071944;28;20201;-79
2023/05/08 07:14:57;;;;;;;14.00;12.60;;;;;;;14.90;100.00;98531.19;5072812;28;20221;-79
2023/05/08 07:17:24;;;;;;;13.23;11.93;;;;;;;14.95;100.00;98533.47;5072648;28;20217;-79
2023/05/08 07:19:51;;;;;;;14.23;12.73;;;;;;;14.94;100.00;98537.13;5072072;28;20218;-79
2023/05/08 07:22:18;;;;;;;13.63;11.90;;;;;;;14.88;100.00;98540.28;5072264;28;20738;-79
2023/05/08 07:24:45;;;;;;;14.67;12.93;;;;;;;14.84;100.00;98538.84;5072317;28;20213;-79
2023/05/08 07:27:13;;;;;;;15.77;13.07;;;;;;;14.81;100.00;98536.41;5072665;28;20595;-79
2023/05/08 07:29:40;;;;;;;17.10;14.13;;;;;;;14.86;100.00;98540.38;5072237;28;20328;-80
2023/05/08 07:32:07;;;;;;;15.50;13.47;;;;;;;14.89;100.00;98536.63;5072364;28;20903;-79
2023/05/08 07:34:33;;;;;;;19.27;14.07;;;;;;;14.99;100.00;98538.47;5072490;28;20289;-80
2023/05/08 07:37:01;;;;;;;15.10;13.50;;;;;;;15.09;100.00;98535.91;5070424;28;20215;-79
2023/05/08 07:39:28;;;;;;;15.20;13.60;;;;;;;15.16;100.00;98547.75;5071321;28;20256;-80
2023/05/08 07:41:54;;;;;;;15.83;13.00;;;;;;;15.22;100.00;98544.59;5071621;28;20219;-79
2023/05/08 07:44:21;;;;;;;14.60;12.60;;;;;;;15.33;100.00;98547.25;5071608;28;20213;-79
2023/05/08 07:46:47;;;;;;;14.37;12.87;;;;;;;15.45;100.00;98546.25;5071171;28;20589;-79
2023/05/08 07:49:14;;;;;;;13.63;12.23;;;;;;;15.62;100.00;98551.00;5071240;28;20234;-83
2023/05/08 07:51:41;;;;;;;12.17;10.83;;;;;;;15.84;100.00;98550.94;5071251;28;20225;-82
2023/05/08 07:54:08;;;;;;;12.57;11.27;;;;;;;15.99;100.00;98553.16;5071304;28;20214;-79
2023/05/08 07:56:35;;;;;;;11.57;10.37;;;;;;;16.13;100.00;98544.81;5070939;28;20233;-79
2023/05/08 07:59:01;;;;;;;11.47;10.33;;;;;;;16.18;100.00;98551.47;5070847;28;20239;-79
2023/05/08 08:01:29;;;;;;;10.50;9.37;;;;;;;16.24;100.00;98556.28;5070637;28;20242;-79
2023/05/08 08:03:56;;;;;;;10.03;9.03;;;;;;;16.38;100.00;98555.13;5070130;28;20246;-79
2023/05/08 08:06:22;;;;;;;9.67;8.77;;;;;;;16.49;100.00;98558.56;5070290;28;20222;-79
2023/05/08 08:08:48;;;;;;;8.07;7.37;;;;;;;16.61;100.00;98554.84;5071110;28;20651;-79
2023/05/08 08:11:16;;;;;;;8.17;7.37;;;;;;;16.71;100.00;98555.72;5070582;28;20215;-79
2023/05/08 08:13:43;;;;;;;8.97;7.77;;;;;;;16.69;100.00;98557.69;5070999;28;20203;-79
2023/05/08 08:16:09;;;;;;;8.33;7.43;;;;;;;16.76;100.00;98558.81;5070326;28;20702;-79
2023/05/08 08:18:36;;;;;;;7.27;6.57;;;;;;;16.84;100.00;98555.50;5070805;28;20313;-79
2023/05/08 08:21:05;;;;;;;9.40;7.70;;;;;;;16.99;100.00;98559.47;5070164;28;20603;-79
2023/05/08 08:23:31;;;;;;;7.90;7.13;;;;;;;17.06;100.00;98558.81;5071051;28;20231;-79
2023/05/08 08:25:58;;;;;;;7.40;6.63;;;;;;;17.09;100.00;98560.34;5070336;28;20215;-79
2023/05/08 08:28:26;;;;;;;7.40;6.40;;;;;;;17.10;100.00;98562.91;5070607;28;20236;-79
2023/05/08 08:30:52;;;;;;;6.30;5.70;;;;;;;17.19;100.00;98561.25;5070432;28;20214;-79
2023/05/08 08:33:19;;;;;;;6.57;5.97;;;;;;;17.31;100.00;98565.50;5070507;28;20647;-79
2023/05/08 08:35:45;;;;;;;7.30;6.57;;;;;;;17.39;100.00;98569.22;5070203;28;20215;-79
2023/05/08 08:38:12;;;;;;;7.73;6.97;;;;;;;17.45;100.00;98552.63;5070786;28;20227;-79
2023/05/08 08:40:40;;;;;;;7.13;6.43;;;;;;;17.45;100.00;98560.63;5070066;28;20214;-79
2023/05/08 08:43:06;;;;;;;7.03;6.33;;;;;;;17.38;100.00;98556.81;5070631;28;20637;-79
2023/05/08 08:45:35;;;;;;;7.27;6.20;;;;;;;17.38;100.00;98556.81;5070426;28;20588;-79
2023/05/08 08:48:03;;;;;;;7.33;6.63;;;;;;;17.46;100.00;98558.78;5070240;28;20596;-79
2023/05/08 08:50:31;;;;;;;7.67;6.87;;;;;;;17.51;100.00;98562.75;5070297;28;20601;-79
2023/05/08 08:53:04;;;;;;;6.73;6.13;;;;;;;17.48;100.00;98562.16;5070534;28;20207;-79
2023/05/08 08:55:33;;;;;;;6.90;6.20;;;;;;;17.51;100.00;98568.09;5070326;28;20207;-79
2023/05/08 08:58:14;;;;;;;7.70;6.90;;;;;;;17.58;100.00;98560.34;5086359;22;20235;-81
2023/05/08 09:00:42;;;;;;;7.20;6.50;;;;;;;17.65;100.00;98564.16;5049097;28;20273;-80
2023/05/08 09:03:09;;;;;;;7.87;6.80;;;;;;;17.73;100.00;98567.81;5050193;28;20239;-80
2023/05/08 09:05:37;;;;;;;7.60;6.87;;;;;;;17.83;100.00;98568.69;5050299;28;20317;-81
2023/05/08 09:08:04;;;;;;;8.00;7.20;;;;;;;17.86;100.00;98568.38;5050285;28;20677;-81
2023/05/08 09:10:30;;;;;;;9.13;6.67;;;;;;;17.96;100.00;98558.53;5050665;28;20208;-81
2023/05/08 09:12:57;;;;;;;11.00;8.30;;;;;;;18.01;100.00;98560.78;5050472;28;20200;-79
2023/05/08 09:15:23;;;;;;;8.77;7.63;;;;;;;18.07;100.00;98560.22;5055770;28;20208;-81
2023/05/08 09:17:51;;;;;;;8.80;7.90;;;;;;;18.11;100.00;98562.47;5054513;28;20218;-81
2023/05/08 09:20:19;;;;;;;10.07;7.90;;;;;;;18.10;100.00;98560.78;5054524;28;20207;-79
2023/05/08 09:22:46;;;;;;;8.83;7.93;;;;;;;17.99;100.00;98568.94;5054275;28;20228;-81
2023/05/08 09:25:13;;;;;;;7.53;6.73;;;;;;;17.93;100.00;98568.69;5054582;28;20247;-80
2023/05/08 09:27:39;;;;;;;9.07;7.73;;;;;;;17.93;100.00;98574.88;5054058;28;20597;-81
2023/05/08 09:30:07;;;;;;;8.00;7.10;;;;;;;17.92;100.00;98575.84;5054219;28;20232;-80
2023/05/08 09:32:38;;;;;;;7.77;6.97;;;;;;;17.88;100.00;98566.44;5054398;28;20215;-80
2023/05/08 09:35:08;;;;;;;6.40;5.80;;;;;;;17.82;100.00;98567.00;5054432;28;20615;-80
2023/05/08 09:37:38;;;;;;;7.77;7.07;;;;;;;17.72;100.00;98566.13;5053907;28;20212;-80
2023/05/08 09:40:15;;;;;;;6.73;6.13;;;;;;;17.73;100.00;98572.34;5053756;28;20235;-82
2023/05/08 09:42:41;;;;;;;7.40;6.43;;;;;;;17.71;100.00;98575.16;5054056;28;20231;-81
2023/05/08 09:45:09;;;;;;;6.23;5.63;;;;;;;17.72;100.00;98579.50;5054133;28;20230;-81
2023/05/08 09:47:38;;;;;;;7.57;6.87;;;;;;;17.68;100.00;98583.44;5053727;28;20212;-81
2023/05/08 09:50:08;;;;;;;7.10;6.17;;;;;;;17.73;100.00;98578.53;5053789;28;20228;-82
2023/05/08 09:52:36;;;;;;;6.63;6.00;;;;;;;17.69;100.00;98577.09;5054484;28;20205;-81
2023/05/08 09:55:04;;;;;;;7.00;6.37;;;;;;;17.73;100.00;98580.38;5054354;28;20227;-81
2023/05/08 09:57:35;;;;;;;6.30;5.70;;;;;;;17.76;100.00;98578.25;5053968;28;20208;-81
2023/05/08 10:00:04;;;;;;;6.20;5.60;;;;;;;17.78;100.00;98576.28;5053557;28;20322;-79
2023/05/08 10:02:31;;;;;;;6.13;5.53;;;;;;;17.82;100.00;98580.38;5053913;28;20204;-82
2023/05/08 10:04:57;;;;;;;7.97;6.40;;;;;;;17.91;100.00;98571.50;5053804;28;20208;-81
2023/05/08 10:07:30;;;;;;;8.30;7.40;;;;;;;17.96;100.00;98584.44;5053430;28;20212;-81
2023/05/08 10:10:01;;;;;;;7.27;6.53;;;;;;;18.05;100.00;98581.75;5053349;28;20224;-81
2023/05/08 10:12:29;;;;;;;6.80;6.10;;;;;;;18.12;100.00;98574.88;5053930;28;20561;-81
2023/05/08 10:14:56;;;;;;;7.63;5.87;;;;;;;18.18;100.00;98574.31;5053828;28;20223;-81
2023/05/08 10:17:27;;;;;;;7.37;5.97;;;;;;;18.26;100.00;98579.78;5053898;28;20216;-80
2023/05/08 10:19:59;;;;;;;6.63;5.90;;;;;;;18.29;100.00;98582.16;5054006;28;20221;-79
2023/05/08 10:22:25;;;;;;;7.17;6.40;;;;;;;18.26;100.00;98581.59;5064619;28;20193;-78
2023/05/08 10:24:56;;;;;;;9.83;8.33;;;;;;;18.11;100.00;98583.03;5071842;28;20255;-81
2023/05/08 10:27:31;;;;;;;7.77;7.00;;;;;;;18.03;100.00;98581.06;5072402;28;20298;-82
2023/05/08 10:30:02;;;;;;;7.20;6.50;;;;;;;18.03;100.00;98575.72;5070087;28;20251;-80
2023/05/08 10:32:36;;;;;;;8.13;7.30;;;;;;;18.13;100.00;98573.03;5073655;28;20219;-81
2023/05/08 10:35:03;;;;;;;9.20;8.30;;;;;;;18.23;100.00;98579.22;5062986;28;20218;-81
2023/05/08 10:37:30;;;;;;;10.17;9.07;;;;;;;18.27;100.00;98576.13;5054107;28;20220;-80
2023/05/08 10:40:00;;;;;;;10.50;9.00;;;;;;;18.05;100.00;98576.41;5053129;28;20235;-81
2023/05/08 10:42:27;;;;;;;10.13;8.30;;;;;;;17.84;100.00;98581.06;5058277;28;20318;-80
2023/05/08 10:44:54;;;;;;;9.10;7.83;;;;;;;17.77;100.00;98585.28;5072024;28;20239;-80
2023/05/08 10:47:27;;;;;;;8.43;7.63;;;;;;;17.82;100.00;98583.03;5069297;28;20208;-81
2023/05/08 10:50:01;;;;;;;10.33;8.27;;;;;;;17.92;100.00;98586.56;5071104;28;20276;-80
2023/05/08 10:52:35;;;;;;;8.23;7.40;;;;;;;18.02;100.00;98579.38;5068383;28;20222;-81
2023/05/08 10:55:19;;;;;;;8.60;7.57;;;;;;;18.17;100.00;98577.94;5052807;28;20192;-81
2023/05/08 10:58:09;;;;;;;8.47;7.30;;;;;;;18.41;100.00;98574.88;5053132;28;20216;-82
2023/05/08 11:01:14;;;;;;;8.10;7.30;;;;;;;18.58;100.00;98572.28;5052519;28;20303;-82
2023/05/08 11:03:44;;;;;;;9.23;8.23;;;;;;;18.82;100.00;98563.72;5052624;28;20318;-81
2023/05/08 11:06:11;;;;;;;7.93;7.13;;;;;;;18.94;100.00;98562.56;5052263;28;20208;-81
2023/05/08 11:08:48;;;;;;;7.63;6.90;;;;;;;18.95;100.00;98557.06;5052839;28;20746;-81
2023/05/08 11:11:25;;;;;;;7.50;6.80;;;;;;;18.95;100.00;98557.06;5053229;28;20692;-81
2023/05/08 11:13:56;;;;;;;9.17;6.53;;;;;;;19.01;100.00;98559.16;5053016;28;20205;-81
2023/05/08 11:17:00;;;;;;;7.30;6.60;;;;;;;19.18;100.00;98570.91;5053153;28;20206;-81
2023/05/08 11:19:27;;;;;;;8.17;7.23;;;;;;;19.37;100.00;98571.69;5052914;28;20722;-79
2023/05/08 11:22:16;;;;;;;8.27;7.37;;;;;;;19.63;100.00;98566.47;5052814;28;20306;-80
2023/05/08 11:24:49;;;;;;;7.20;6.50;;;;;;;19.91;100.00;98565.38;5050499;28;20238;-79
2023/05/08 11:27:17;;;;;;;8.87;7.57;;;;;;;20.11;100.00;98554.34;5052017;28;20214;-80